createdAt,value
2018-12-21T00:01:50.538Z,3.10
2018-12-21T00:04:20.055Z,3.50
2018-12-21T00:07:00.258Z,3.73
2018-12-21T00:09:35.409Z,3.67
2018-12-21T00:12:10.241Z,3.90
2018-12-21T00:14:45.247Z,3.07
2018-12-21T00:17:20.358Z,4.47
2018-12-21T00:19:55.239Z,3.37
2018-12-21T00:22:30.869Z,3.60
2018-12-21T00:25:06.546Z,4.03
2018-12-21T00:27:41.460Z,3.43
2018-12-21T00:30:22.001Z,3.70
2018-12-21T00:33:02.194Z,4.00
2018-12-21T00:35:42.118Z,4.80
2018-12-21T00:38:22.195Z,4.30
2018-12-21T00:41:02.235Z,3.73
2018-12-21T00:43:39.908Z,3.77
2018-12-21T00:46:21.196Z,4.37
2018-12-21T00:48:56.380Z,3.87
2018-12-21T00:51:31.239Z,3.97
2018-12-21T00:54:06.113Z,3.80
2018-12-21T00:56:41.580Z,3.90
2018-12-21T00:59:16.420Z,3.63
2018-12-21T01:01:51.915Z,4.20
2018-12-21T01:04:26.698Z,3.70
2018-12-21T01:07:01.534Z,3.80
2018-12-21T01:09:36.760Z,3.57
2018-12-21T01:12:12.577Z,3.90
2018-12-21T01:14:47.804Z,3.30
2018-12-21T01:17:22.747Z,4.53
2018-12-21T01:19:57.408Z,3.33
2018-12-21T01:22:32.866Z,3.70
2018-12-21T01:25:09.108Z,3.27
2018-12-21T01:27:43.742Z,3.70
2018-12-21T01:30:19.024Z,3.60
2018-12-21T01:32:53.770Z,3.30
2018-12-21T01:35:28.567Z,3.80
2018-12-21T01:38:03.496Z,3.33
2018-12-21T01:40:38.391Z,3.47
2018-12-21T01:43:13.099Z,3.60
2018-12-21T01:45:48.659Z,2.97
2018-12-21T01:48:23.526Z,3.40
2018-12-21T01:50:58.751Z,3.50
2018-12-21T01:53:30.638Z,3.77
2018-12-21T01:56:05.726Z,3.53
2018-12-21T01:58:40.656Z,3.33
2018-12-21T02:01:15.492Z,3.47
2018-12-21T02:03:50.421Z,3.03
2018-12-21T02:06:25.459Z,3.53
2018-12-21T02:09:00.431Z,3.40
2018-12-21T02:11:35.357Z,3.10
2018-12-21T02:14:10.201Z,3.23
2018-12-21T02:16:45.494Z,3.00
2018-12-21T02:19:20.523Z,3.67
2018-12-21T02:21:55.996Z,3.40
2018-12-21T02:24:31.446Z,3.23
2018-12-21T02:27:06.431Z,3.00
2018-12-21T02:29:41.364Z,3.30
2018-12-21T02:32:16.516Z,3.30
2018-12-21T02:34:51.350Z,3.50
2018-12-21T02:37:26.377Z,3.00
2018-12-21T02:40:01.198Z,2.83
2018-12-21T02:42:36.760Z,2.90
2018-12-21T02:45:11.525Z,3.10
2018-12-21T02:47:46.539Z,3.50
2018-12-21T02:50:21.361Z,3.73
2018-12-21T02:52:56.591Z,3.10
2018-12-21T02:55:31.521Z,3.27
2018-12-21T02:58:01.237Z,3.17
2018-12-21T03:00:36.159Z,3.97
2018-12-21T03:03:11.137Z,3.03
2018-12-21T03:05:45.863Z,4.10
2018-12-21T03:08:20.727Z,3.77
2018-12-21T03:10:55.626Z,4.80
2018-12-21T03:13:30.544Z,3.50
2018-12-21T03:16:05.340Z,2.83
2018-12-21T03:18:40.280Z,3.00
2018-12-21T03:21:14.888Z,2.90
2018-12-21T03:23:49.942Z,3.00
2018-12-21T03:26:24.757Z,3.47
2018-12-21T03:28:59.597Z,2.90
2018-12-21T03:31:34.397Z,2.60
2018-12-21T03:34:09.143Z,2.83
2018-12-21T03:36:44.102Z,3.07
2018-12-21T03:39:18.872Z,2.93
2018-12-21T03:41:53.765Z,2.80
2018-12-21T03:44:28.613Z,4.00
2018-12-21T03:47:03.591Z,2.90
2018-12-21T03:49:38.391Z,3.50
2018-12-21T03:52:13.645Z,3.10
2018-12-21T03:54:48.391Z,2.70
2018-12-21T03:57:23.277Z,3.17
2018-12-21T03:59:58.092Z,3.33
2018-12-21T04:02:32.856Z,2.77
2018-12-21T04:05:07.610Z,2.43
2018-12-21T04:07:42.452Z,3.10
2018-12-21T04:10:17.434Z,3.70
2018-12-21T04:12:53.146Z,2.87
2018-12-21T04:15:28.344Z,2.70
2018-12-21T04:18:03.020Z,2.43
2018-12-21T04:20:32.356Z,3.17
2018-12-21T04:23:07.151Z,2.50
2018-12-21T04:25:42.323Z,2.90
2018-12-21T04:28:17.433Z,2.80
2018-12-21T04:30:52.573Z,2.43
2018-12-21T04:33:27.370Z,2.93
2018-12-21T04:36:02.450Z,2.30
2018-12-21T04:38:37.416Z,2.40
2018-12-21T04:41:12.944Z,2.50
2018-12-21T04:43:47.790Z,2.53
2018-12-21T04:46:22.554Z,3.10
2018-12-21T04:48:57.486Z,3.30
2018-12-21T04:51:32.696Z,2.67
2018-12-21T04:54:07.568Z,2.10
2018-12-21T04:56:42.355Z,3.00
2018-12-21T04:59:17.217Z,2.80
2018-12-21T05:01:52.093Z,2.70
2018-12-21T05:04:26.864Z,3.23
2018-12-21T05:07:01.558Z,3.07
2018-12-21T05:09:36.642Z,2.80
2018-12-21T05:12:11.473Z,3.33
2018-12-21T05:14:46.347Z,3.57
2018-12-21T05:17:21.016Z,4.00
2018-12-21T05:19:55.940Z,3.87
2018-12-21T05:22:30.611Z,3.80
2018-12-21T05:25:06.414Z,3.77
2018-12-21T05:27:41.167Z,3.60
2018-12-21T05:30:16.631Z,3.50
2018-12-21T05:32:51.438Z,3.97
2018-12-21T05:35:26.777Z,3.83
2018-12-21T05:38:01.765Z,4.33
2018-12-21T05:40:36.418Z,5.03
2018-12-21T05:43:12.300Z,4.47
2018-12-21T05:45:47.143Z,5.37
2018-12-21T05:48:21.910Z,6.10
2018-12-21T05:50:57.128Z,5.90
2018-12-21T05:53:32.154Z,6.73
2018-12-21T05:56:07.152Z,6.70
2018-12-21T05:58:41.957Z,6.47
2018-12-21T06:01:16.778Z,6.20
2018-12-21T06:03:51.856Z,6.83
2018-12-21T06:06:26.684Z,6.60
2018-12-21T06:09:01.607Z,6.07
2018-12-21T06:11:30.831Z,5.57
2018-12-21T06:14:05.679Z,5.40
2018-12-21T06:16:41.116Z,4.87
2018-12-21T06:19:15.641Z,4.50
2018-12-21T06:21:50.652Z,3.70
2018-12-21T06:24:25.552Z,4.00
2018-12-21T06:27:00.413Z,4.33
2018-12-21T06:29:35.128Z,3.70
2018-12-21T06:32:10.142Z,3.67
2018-12-21T06:34:45.748Z,3.50
2018-12-21T06:37:20.495Z,3.30
2018-12-21T06:39:55.549Z,2.93
2018-12-21T06:42:31.023Z,3.33
2018-12-21T06:45:06.478Z,2.60
2018-12-21T06:47:42.378Z,2.90
2018-12-21T06:50:18.292Z,2.67
2018-12-21T06:52:53.407Z,3.10
2018-12-21T06:55:29.154Z,2.30
2018-12-21T06:57:59.043Z,2.57
2018-12-21T07:00:28.491Z,2.80
2018-12-21T07:02:57.793Z,2.93
2018-12-21T07:05:33.759Z,2.10
2018-12-21T07:08:08.840Z,2.27
2018-12-21T07:10:43.640Z,2.60
2018-12-21T07:13:12.942Z,2.40
2018-12-21T07:15:42.383Z,2.67
2018-12-21T07:18:17.324Z,2.47
2018-12-21T07:20:52.522Z,3.00
2018-12-21T07:23:27.660Z,2.63
2018-12-21T07:26:02.487Z,2.70
2018-12-21T07:28:37.392Z,2.80
2018-12-21T07:31:12.412Z,2.97
2018-12-21T07:33:47.595Z,3.20
2018-12-21T07:36:22.655Z,2.93
2018-12-21T07:38:57.460Z,2.90
2018-12-21T07:41:32.528Z,3.37
2018-12-21T07:44:07.196Z,3.20
2018-12-21T07:46:42.150Z,2.67
2018-12-21T07:49:16.995Z,2.83
2018-12-21T07:51:51.849Z,2.90
2018-12-21T07:54:27.035Z,3.70
2018-12-21T07:57:01.965Z,3.00
2018-12-21T07:59:36.916Z,2.97
2018-12-21T08:02:12.005Z,2.63
2018-12-21T08:04:47.021Z,2.37
2018-12-21T08:07:21.940Z,2.20
2018-12-21T08:09:57.070Z,1.90
2018-12-21T08:12:32.255Z,1.90
2018-12-21T08:15:07.079Z,1.63
2018-12-21T08:17:42.178Z,1.33
2018-12-21T08:20:17.064Z,1.70
2018-12-21T08:22:52.009Z,1.97
2018-12-21T08:25:27.116Z,2.00
2018-12-21T08:28:01.976Z,1.70
2018-12-21T08:30:36.837Z,3.00
2018-12-21T08:33:11.776Z,1.93
2018-12-21T08:35:47.464Z,1.70
2018-12-21T08:38:22.426Z,2.37
2018-12-21T08:40:58.584Z,2.60
2018-12-21T08:43:33.517Z,3.20
2018-12-21T08:46:08.609Z,4.33
2018-12-21T08:48:43.460Z,3.43
2018-12-21T08:51:18.925Z,3.37
2018-12-21T08:53:53.920Z,3.40
2018-12-21T08:56:29.038Z,3.83
2018-12-21T08:59:03.887Z,4.10
2018-12-21T09:01:38.891Z,3.60
2018-12-21T09:04:14.019Z,3.70
2018-12-21T09:06:49.107Z,4.10
2018-12-21T09:09:24.381Z,3.77
2018-12-21T09:11:59.548Z,4.10
2018-12-21T09:14:34.189Z,4.23
2018-12-21T09:17:09.280Z,4.27
2018-12-21T09:19:44.771Z,3.80
2018-12-21T09:22:19.851Z,4.07
2018-12-21T09:24:54.804Z,4.67
2018-12-21T09:27:30.076Z,4.43
2018-12-21T09:30:07.850Z,4.53
2018-12-21T09:32:43.190Z,4.87
2018-12-21T09:35:18.380Z,4.17
2018-12-21T09:37:53.167Z,4.80
2018-12-21T09:40:28.205Z,4.40
2018-12-21T09:43:08.570Z,4.10
2018-12-21T09:45:43.795Z,5.00
2018-12-21T09:48:19.565Z,3.97
2018-12-21T09:50:54.279Z,4.80
2018-12-21T09:53:29.642Z,5.03
2018-12-21T09:56:04.447Z,5.60
2018-12-21T09:58:39.900Z,5.67
2018-12-21T10:01:15.027Z,5.37
2018-12-21T10:03:50.716Z,5.60
2018-12-21T10:06:25.769Z,6.67
2018-12-21T10:09:00.621Z,5.40
2018-12-21T10:11:35.678Z,5.10
2018-12-21T10:14:10.461Z,5.53
2018-12-21T10:16:45.816Z,5.30
2018-12-21T10:19:20.869Z,5.00
2018-12-21T10:21:55.875Z,4.57
2018-12-21T10:24:30.624Z,4.00
2018-12-21T10:27:05.636Z,4.03
2018-12-21T10:29:40.449Z,3.67
2018-12-21T10:32:15.488Z,3.93
2018-12-21T10:34:50.591Z,7.90
2018-12-21T10:37:25.736Z,13.83
2018-12-21T10:40:00.416Z,19.80
2018-12-21T10:42:35.821Z,28.40
2018-12-21T10:45:10.759Z,16.00
2018-12-21T10:47:45.657Z,11.40
2018-12-21T10:50:21.124Z,6.90
2018-12-21T10:52:56.110Z,2.10
2018-12-21T10:55:31.109Z,2.10
2018-12-21T10:58:05.940Z,1.60
2018-12-21T11:00:40.957Z,1.80
2018-12-21T11:03:15.889Z,2.10
2018-12-21T11:05:51.361Z,2.07
2018-12-21T11:08:26.148Z,1.83
2018-12-21T11:11:01.605Z,2.00
2018-12-21T11:13:36.505Z,1.80
2018-12-21T11:16:11.421Z,1.67
2018-12-21T11:18:46.562Z,1.70
2018-12-21T11:21:21.485Z,1.90
2018-12-21T11:23:56.686Z,1.77
2018-12-21T11:26:31.613Z,1.80
2018-12-21T11:29:06.609Z,1.60
2018-12-21T11:31:41.625Z,1.40
2018-12-21T11:34:16.494Z,1.40
2018-12-21T11:36:51.731Z,1.40
2018-12-21T11:39:26.623Z,1.40
2018-12-21T11:42:01.519Z,1.27
2018-12-21T11:44:36.342Z,1.40
2018-12-21T11:47:13.487Z,1.37
2018-12-21T11:49:48.398Z,1.30
2018-12-21T11:52:23.943Z,1.30
2018-12-21T11:54:59.115Z,1.50
2018-12-21T11:57:33.904Z,1.43
2018-12-21T12:00:10.097Z,1.47
2018-12-21T12:02:44.974Z,1.50
2018-12-21T12:05:19.914Z,1.53
2018-12-21T12:07:55.063Z,1.40
2018-12-21T12:10:30.124Z,1.50
2018-12-21T12:12:59.273Z,1.63
2018-12-21T12:15:34.300Z,1.63
2018-12-21T12:18:08.983Z,1.30
2018-12-21T12:20:43.998Z,1.50
2018-12-21T12:23:14.284Z,1.37
2018-12-21T12:25:49.187Z,1.20
2018-12-21T12:28:18.713Z,1.40
2018-12-21T12:30:48.307Z,1.70
2018-12-21T12:33:17.589Z,1.33
2018-12-21T12:35:46.826Z,1.50
2018-12-21T12:38:16.382Z,1.90
2018-12-21T12:40:45.672Z,1.87
2018-12-21T12:43:14.965Z,1.90
2018-12-21T12:45:44.709Z,2.20
2018-12-21T12:48:14.284Z,2.20
2018-12-21T12:50:43.658Z,2.33
2018-12-21T12:53:13.121Z,2.23
2018-12-21T12:55:42.555Z,2.50
2018-12-21T12:58:17.576Z,2.73
2018-12-21T13:00:52.725Z,2.83
2018-12-21T13:03:27.587Z,3.10
2018-12-21T13:06:02.591Z,2.90
2018-12-21T13:08:38.950Z,3.00
2018-12-21T13:11:08.810Z,2.50
2018-12-21T13:13:43.790Z,2.60
2018-12-21T13:16:18.914Z,2.07
2018-12-21T13:18:53.732Z,2.40
2018-12-21T13:21:28.911Z,2.23
2018-12-21T13:24:03.725Z,2.00
2018-12-21T13:26:38.503Z,2.23
2018-12-21T13:29:13.618Z,1.80
2018-12-21T13:31:48.705Z,1.90
2018-12-21T13:34:17.842Z,2.03
2018-12-21T13:36:53.263Z,1.60
2018-12-21T13:39:28.745Z,1.60
2018-12-21T13:42:04.558Z,1.90
2018-12-21T13:44:39.443Z,1.60
2018-12-21T13:47:14.299Z,1.90
2018-12-21T13:49:43.456Z,1.93
2018-12-21T13:52:18.440Z,2.30
2018-12-21T13:54:47.992Z,2.13
2018-12-21T13:57:17.409Z,1.93
2018-12-21T13:59:46.707Z,2.20
2018-12-21T14:02:16.194Z,2.17
2018-12-21T14:04:45.645Z,2.10
2018-12-21T14:07:15.007Z,2.20
2018-12-21T14:09:44.383Z,2.60
2018-12-21T14:12:13.983Z,2.53
2018-12-21T14:14:43.582Z,2.77
2018-12-21T14:17:18.411Z,2.33
2018-12-21T14:19:48.124Z,2.53
2018-12-21T14:22:17.693Z,2.50
2018-12-21T14:24:47.098Z,2.30
2018-12-21T14:27:22.026Z,2.47
2018-12-21T14:29:57.101Z,2.70
2018-12-21T14:32:31.749Z,2.47
2018-12-21T14:35:08.089Z,3.07
2018-12-21T14:37:38.294Z,3.03
2018-12-21T14:40:09.654Z,3.00
2018-12-21T14:42:39.122Z,3.13
2018-12-21T14:45:08.861Z,3.53
2018-12-21T14:47:38.415Z,3.60
2018-12-21T14:50:10.747Z,3.70
2018-12-21T14:52:40.025Z,3.60
2018-12-21T14:55:15.351Z,3.47
2018-12-21T14:57:44.878Z,4.20
2018-12-21T15:00:14.637Z,3.60
2018-12-21T15:02:44.027Z,4.10
2018-12-21T15:05:19.000Z,3.70
2018-12-21T15:07:54.229Z,3.77
2018-12-21T15:10:29.107Z,3.77
2018-12-21T15:13:04.557Z,4.23
2018-12-21T15:15:39.573Z,3.93
2018-12-21T15:18:14.392Z,3.67
2018-12-21T15:20:49.346Z,4.07
2018-12-21T15:23:24.348Z,3.60
2018-12-21T15:25:59.470Z,4.40
2018-12-21T15:28:34.379Z,4.13
2018-12-21T15:31:09.603Z,4.10
2018-12-21T15:33:44.466Z,4.97
2018-12-21T15:36:19.326Z,5.10
2018-12-21T15:38:54.389Z,4.70
2018-12-21T15:41:30.529Z,5.00
2018-12-21T15:44:06.616Z,4.03
2018-12-21T15:46:42.030Z,5.23
2018-12-21T15:49:17.139Z,5.23
2018-12-21T15:51:52.190Z,5.50
2018-12-21T15:54:26.799Z,5.97
2018-12-21T15:57:01.859Z,5.30
2018-12-21T15:59:37.052Z,5.60
2018-12-21T16:02:12.623Z,6.13
2018-12-21T16:04:47.540Z,6.13
2018-12-21T16:07:16.780Z,5.90
2018-12-21T16:09:46.031Z,5.33
2018-12-21T16:12:15.873Z,6.50
2018-12-21T16:14:45.225Z,5.90
2018-12-21T16:17:14.881Z,5.80
2018-12-21T16:19:44.156Z,6.00
2018-12-21T16:22:13.926Z,6.00
2018-12-21T16:24:43.414Z,6.53
2018-12-21T16:27:13.413Z,7.10
2018-12-21T16:29:42.610Z,5.93
2018-12-21T16:32:11.769Z,5.87
2018-12-21T16:34:46.650Z,6.57
2018-12-21T16:37:21.472Z,6.80
2018-12-21T16:39:50.892Z,5.70
2018-12-21T16:42:20.163Z,6.33
2018-12-21T16:44:49.734Z,7.00
2018-12-21T16:47:19.829Z,6.63
2018-12-21T16:49:49.336Z,6.70
2018-12-21T16:52:20.214Z,6.20
2018-12-21T16:54:49.453Z,7.83
2018-12-21T16:57:23.263Z,8.27
2018-12-21T16:59:52.868Z,6.20
2018-12-21T17:02:22.203Z,8.17
2018-12-21T17:04:57.168Z,7.03
2018-12-21T17:07:32.237Z,7.20
2018-12-21T17:10:12.223Z,7.57
2018-12-21T17:12:47.686Z,6.40
2018-12-21T17:15:22.606Z,7.23
2018-12-21T17:17:57.970Z,7.80
2018-12-21T17:20:33.087Z,6.80
2018-12-21T17:23:08.052Z,7.77
2018-12-21T17:25:43.676Z,6.73
2018-12-21T17:28:19.006Z,7.13
2018-12-21T17:30:54.078Z,7.00
2018-12-21T17:33:28.862Z,7.67
2018-12-21T17:36:03.918Z,7.93
2018-12-21T17:38:38.911Z,7.50
2018-12-21T17:41:13.904Z,7.50
2018-12-21T17:43:48.919Z,7.47
2018-12-21T17:46:23.848Z,6.33
2018-12-21T17:48:59.107Z,7.50
2018-12-21T17:51:34.787Z,7.80
2018-12-21T17:54:09.799Z,8.23
2018-12-21T17:56:45.130Z,8.70
2018-12-21T17:59:20.328Z,8.20
2018-12-21T18:01:55.149Z,7.70
2018-12-21T18:04:31.030Z,8.33
2018-12-21T18:07:06.178Z,8.60
2018-12-21T18:09:41.176Z,7.60
2018-12-21T18:12:16.169Z,7.40
2018-12-21T18:14:51.185Z,7.27
2018-12-21T18:17:26.370Z,8.17
2018-12-21T18:20:01.373Z,6.97
2018-12-21T18:22:36.485Z,6.80
2018-12-21T18:25:14.795Z,9.03
2018-12-21T18:27:52.090Z,7.63
2018-12-21T18:30:30.902Z,8.23
2018-12-21T18:33:10.965Z,8.20
2018-12-21T18:35:45.246Z,8.87
2018-12-21T18:38:22.268Z,9.00
2018-12-21T18:40:57.790Z,7.10
2018-12-21T18:43:32.667Z,7.37
2018-12-21T18:46:03.359Z,8.20
2018-12-21T18:48:38.120Z,8.30
2018-12-21T18:51:13.098Z,7.77
2018-12-21T18:53:48.576Z,8.03
2018-12-21T18:56:21.733Z,8.57
2018-12-21T18:58:56.606Z,8.13
2018-12-21T19:01:31.435Z,8.43
2018-12-21T19:04:06.883Z,8.13
2018-12-21T19:06:42.026Z,7.63
2018-12-21T19:09:16.933Z,7.70
2018-12-21T19:11:51.732Z,8.40
2018-12-21T19:14:27.044Z,8.13
2018-12-21T19:17:02.537Z,7.70
2018-12-21T19:19:37.655Z,7.33
2018-12-21T19:22:12.849Z,6.93
2018-12-21T19:24:47.963Z,8.07
2018-12-21T19:27:22.956Z,8.00
2018-12-21T19:29:58.405Z,6.93
2018-12-21T19:32:33.170Z,7.47
2018-12-21T19:35:09.378Z,6.60
2018-12-21T19:37:44.259Z,7.30
2018-12-21T19:40:19.349Z,8.23
2018-12-21T19:42:54.166Z,7.40
2018-12-21T19:45:24.997Z,7.50
2018-12-21T19:47:59.915Z,8.30
2018-12-21T19:50:34.860Z,6.60
2018-12-21T19:53:10.555Z,6.60
2018-12-21T19:55:55.619Z,7.93
2018-12-21T19:58:30.972Z,7.17
2018-12-21T20:01:07.019Z,7.87
2018-12-21T20:03:41.739Z,7.70
2018-12-21T20:06:16.883Z,7.97
2018-12-21T20:08:51.852Z,7.60
2018-12-21T20:11:21.250Z,6.70
2018-12-21T20:13:56.627Z,7.27
2018-12-21T20:16:32.251Z,7.73
2018-12-21T20:19:07.265Z,6.93
2018-12-21T20:21:42.050Z,8.13
2018-12-21T20:24:17.555Z,7.37
2018-12-21T20:26:55.683Z,10.00
2018-12-21T20:29:30.897Z,8.30
2018-12-21T20:32:00.951Z,7.50
2018-12-21T20:34:35.870Z,8.00
2018-12-21T20:37:10.907Z,8.10
2018-12-21T20:39:47.425Z,8.13
2018-12-21T20:42:22.298Z,7.20
2018-12-21T20:44:57.440Z,6.87
2018-12-21T20:47:32.600Z,8.23
2018-12-21T20:50:11.763Z,7.50
2018-12-21T20:52:46.649Z,7.70
2018-12-21T20:55:21.664Z,9.20
2018-12-21T20:58:02.155Z,8.20
2018-12-21T21:00:37.859Z,7.87
2018-12-21T21:03:13.100Z,9.00
2018-12-21T21:05:48.435Z,8.37
2018-12-21T21:08:23.521Z,7.63
2018-12-21T21:10:59.294Z,8.53
2018-12-21T21:13:34.180Z,8.13
2018-12-21T21:16:09.276Z,7.17
2018-12-21T21:18:44.624Z,7.87
2018-12-21T21:21:19.710Z,7.30
2018-12-21T21:23:54.844Z,8.67
2018-12-21T21:26:29.626Z,8.03
2018-12-21T21:29:04.826Z,8.30
2018-12-21T21:31:42.998Z,8.33
2018-12-21T21:34:17.906Z,8.20
2018-12-21T21:36:52.949Z,8.50
2018-12-21T21:39:28.079Z,8.70
2018-12-21T21:41:57.532Z,9.27
2018-12-21T21:44:32.297Z,8.00
2018-12-21T21:47:07.085Z,7.93
2018-12-21T21:49:42.323Z,8.83
2018-12-21T21:52:17.151Z,7.17
2018-12-21T21:54:52.182Z,7.47
2018-12-21T21:57:27.149Z,8.30
2018-12-21T22:00:02.059Z,7.50
2018-12-21T22:02:37.319Z,7.27
2018-12-21T22:05:12.259Z,7.93
2018-12-21T22:07:41.774Z,9.10
2018-12-21T22:10:16.668Z,6.83
2018-12-21T22:12:51.635Z,8.43
2018-12-21T22:15:26.674Z,9.07
2018-12-21T22:18:01.632Z,8.40
2018-12-21T22:20:36.416Z,8.33
2018-12-21T22:23:11.242Z,7.70
2018-12-21T22:25:53.304Z,8.47
2018-12-21T22:28:23.508Z,7.10
2018-12-21T22:30:58.482Z,8.10
2018-12-21T22:33:33.595Z,8.23
2018-12-21T22:36:08.242Z,8.27
2018-12-21T22:38:43.305Z,8.60
2018-12-21T22:41:18.074Z,8.50
2018-12-21T22:43:53.267Z,8.47
2018-12-21T22:46:27.973Z,8.47
2018-12-21T22:48:59.657Z,7.40
2018-12-21T22:51:34.562Z,8.43
2018-12-21T22:54:09.542Z,8.70
2018-12-21T22:56:44.572Z,8.50
2018-12-21T22:59:13.810Z,7.87
2018-12-21T23:01:49.260Z,7.50
2018-12-21T23:04:24.096Z,7.50
2018-12-21T23:06:58.844Z,7.77
2018-12-21T23:09:28.044Z,8.23
2018-12-21T23:12:02.762Z,8.43
2018-12-21T23:14:37.774Z,8.70
2018-12-21T23:17:12.651Z,7.87
2018-12-21T23:19:47.642Z,8.47
2018-12-21T23:22:22.256Z,8.00
2018-12-21T23:24:57.400Z,9.13
2018-12-21T23:27:32.324Z,8.57
2018-12-21T23:30:01.398Z,8.63
2018-12-21T23:32:36.563Z,8.07
2018-12-21T23:35:11.690Z,8.70
2018-12-21T23:37:46.603Z,8.27
2018-12-21T23:40:21.486Z,8.70
2018-12-21T23:42:56.598Z,8.80
2018-12-21T23:45:31.943Z,7.60
2018-12-21T23:48:07.003Z,8.97
2018-12-21T23:50:42.019Z,8.10
2018-12-21T23:53:17.555Z,8.10
2018-12-21T23:55:52.952Z,8.70
2018-12-21T23:58:28.046Z,7.67
